Time;durP1;ratioP1;P1;durP2;ratioP2;P2;SDS_P1;SDS_P2;PMS_P1;PMS_P2;Temp;Humidity;BMP_temperature;BMP_pressure;BME280_temperature;BME280_humidity;BME280_pressure;Samples;Min_cycle;Max_cycle;Signal;HPM_P1;HPM_P2
2023/06/30 00:02:17;;;;;;;5.63;1.92;;;;;;;;;;6205927;23;20040;-87
2023/06/30 00:04:43;;;;;;;5.28;1.73;;;;;;;;;;6205642;23;20091;-87
2023/06/30 00:07:10;;;;;;;5.57;2.17;;;;;;;;;;6208305;23;20044;-85
2023/06/30 00:09:36;;;;;;;3.15;2.08;;;;;;;;;;6209444;23;20070;-86
2023/06/30 00:12:02;;;;;;;5.78;2.60;;;;;;;;;;6208729;23;20024;-86
2023/06/30 00:14:28;;;;;;;5.15;2.03;;;;;;;;;;6208033;23;20013;-85
2023/06/30 00:16:56;;;;;;;4.35;2.17;;;;;;;;;;6207419;23;20040;-85
2023/06/30 00:19:23;;;;;;;4.28;2.00;;;;;;;;;;6205733;23;20335;-86
2023/06/30 00:21:52;;;;;;;5.30;1.70;;;;;;;;;;6208638;23;20144;-86
2023/06/30 00:24:19;;;;;;;4.90;2.25;;;;;;;;;;6181662;23;20159;-86
2023/06/30 00:26:45;;;;;;;2.40;1.75;;;;;;;;;;6205943;23;20110;-87
2023/06/30 00:29:11;;;;;;;5.13;2.80;;;;;;;;;;6207785;23;20027;-85
2023/06/30 00:31:37;;;;;;;4.25;1.85;;;;;;;;;;6208330;23;20509;-86
2023/06/30 00:34:03;;;;;;;3.40;1.63;;;;;;;;;;6206595;23;20319;-86
2023/06/30 00:36:29;;;;;;;5.47;1.80;;;;;;;;;;6205993;23;20025;-85
2023/06/30 00:38:55;;;;;;;6.57;1.67;;;;;;;;;;6180520;23;20031;-86
2023/06/30 00:41:22;;;;;;;5.00;2.05;;;;;;;;;;6205379;23;20021;-86
2023/06/30 00:43:48;;;;;;;3.60;2.20;;;;;;;;;;6206480;23;20017;-86
2023/06/30 00:46:16;;;;;;;3.42;1.75;;;;;;;;;;6207283;23;20457;-86
2023/06/30 00:48:42;;;;;;;4.82;2.05;;;;;;;;;;6205617;23;20056;-86
2023/06/30 00:51:09;;;;;;;4.72;2.35;;;;;;;;;;6206543;23;20025;-86
2023/06/30 00:53:35;;;;;;;7.55;1.92;;;;;;;;;;6206680;23;20013;-86
2023/06/30 00:56:01;;;;;;;4.60;2.03;;;;;;;;;;6180214;23;20055;-86
2023/06/30 00:58:27;;;;;;;6.22;2.45;;;;;;;;;;6207530;23;20091;-85
2023/06/30 01:00:55;;;;;;;3.20;1.98;;;;;;;;;;6207680;23;20012;-86
2023/06/30 01:03:28;;;;;;;4.95;1.88;;;;;;;;;;6207067;23;20020;-87
2023/06/30 01:06:13;;;;;;;4.80;2.25;;;;;;;;;;6207192;23;20027;-86
2023/06/30 01:08:48;;;;;;;5.63;1.98;;;;;;;;;;6180528;23;20020;-86
2023/06/30 01:11:14;;;;;;;3.60;1.73;;;;;;;;;;6206461;23;20024;-86
2023/06/30 01:13:41;;;;;;;3.67;2.25;;;;;;;;;;6206442;23;20099;-86
2023/06/30 01:16:09;;;;;;;4.78;2.05;;;;;;;;;;6206605;23;20023;-86
2023/06/30 01:18:36;;;;;;;3.58;2.03;;;;;;;;;;6205370;23;20350;-86
2023/06/30 01:21:06;;;;;;;5.10;2.00;;;;;;;;;;6206722;23;20389;-86
2023/06/30 01:23:32;;;;;;;3.17;1.80;;;;;;;;;;6206474;23;20025;-87
2023/06/30 01:25:58;;;;;;;5.55;2.30;;;;;;;;;;6207205;23;20076;-86
2023/06/30 01:28:27;;;;;;;4.68;2.10;;;;;;;;;;6205308;23;20430;-86
2023/06/30 01:30:54;;;;;;;3.45;1.60;;;;;;;;;;6205384;23;20012;-87
2023/06/30 01:33:21;;;;;;;2.95;1.77;;;;;;;;;;6207672;23;20012;-86
2023/06/30 01:35:47;;;;;;;8.10;4.10;;;;;;;;;;6181033;23;20456;-86
2023/06/30 01:38:13;;;;;;;6.00;2.38;;;;;;;;;;6205087;23;20346;-87
2023/06/30 01:40:39;;;;;;;2.28;1.63;;;;;;;;;;6206404;23;20086;-87
2023/06/30 01:43:05;;;;;;;5.32;2.33;;;;;;;;;;6206817;23;20020;-86
2023/06/30 01:45:31;;;;;;;4.40;1.70;;;;;;;;;;6208565;23;20079;-86
2023/06/30 01:47:58;;;;;;;3.85;1.60;;;;;;;;;;6207334;23;20017;-86
2023/06/30 01:50:25;;;;;;;7.13;3.28;;;;;;;;;;6205845;23;20393;-87
2023/06/30 01:52:51;;;;;;;3.13;1.52;;;;;;;;;;6207860;23;20439;-86
2023/06/30 01:55:17;;;;;;;4.07;2.28;;;;;;;;;;6207420;23;20365;-87
2023/06/30 01:57:43;;;;;;;3.20;1.58;;;;;;;;;;6207880;23;20020;-87
2023/06/30 02:00:09;;;;;;;2.95;1.50;;;;;;;;;;6206236;23;20017;-86
2023/06/30 02:02:35;;;;;;;3.35;1.85;;;;;;;;;;6206312;23;20013;-87
2023/06/30 02:05:01;;;;;;;4.60;1.77;;;;;;;;;;6208220;23;20036;-86
2023/06/30 02:07:27;;;;;;;3.92;1.65;;;;;;;;;;6207805;23;20019;-86
2023/06/30 02:09:53;;;;;;;3.58;1.67;;;;;;;;;;6207267;23;20020;-86
2023/06/30 02:12:19;;;;;;;3.63;1.70;;;;;;;;;;6208342;23;20016;-87
2023/06/30 02:14:45;;;;;;;2.70;1.77;;;;;;;;;;6209423;23;20105;-86
2023/06/30 02:17:12;;;;;;;5.03;2.25;;;;;;;;;;6207962;23;20024;-86
2023/06/30 02:19:37;;;;;;;4.40;1.70;;;;;;;;;;6207010;23;20012;-86
2023/06/30 02:22:04;;;;;;;5.75;1.90;;;;;;;;;;6209321;23;20092;-86
2023/06/30 02:24:30;;;;;;;3.00;1.90;;;;;;;;;;6208381;23;20020;-86
2023/06/30 02:26:56;;;;;;;4.03;1.98;;;;;;;;;;6208565;23;20066;-86
2023/06/30 02:29:22;;;;;;;3.50;2.20;;;;;;;;;;6207704;23;20382;-87
2023/06/30 02:31:48;;;;;;;3.47;1.80;;;;;;;;;;6206681;23;20020;-86
2023/06/30 02:34:14;;;;;;;4.63;2.20;;;;;;;;;;6209347;23;20017;-87
2023/06/30 02:36:40;;;;;;;9.40;2.00;;;;;;;;;;6209103;23;20021;-87
2023/06/30 02:39:06;;;;;;;4.43;1.63;;;;;;;;;;6206450;23;20079;-87
2023/06/30 02:41:32;;;;;;;4.75;1.80;;;;;;;;;;6209520;23;20016;-86
2023/06/30 02:43:58;;;;;;;4.20;1.75;;;;;;;;;;6209245;23;20019;-87
2023/06/30 02:46:24;;;;;;;3.85;1.92;;;;;;;;;;6209215;23;20012;-86
2023/06/30 02:48:50;;;;;;;4.80;1.73;;;;;;;;;;6208755;23;20020;-86
2023/06/30 02:51:16;;;;;;;2.58;1.73;;;;;;;;;;6207541;23;20012;-86
2023/06/30 02:53:42;;;;;;;5.05;1.90;;;;;;;;;;6208527;23;20519;-86
2023/06/30 02:56:08;;;;;;;4.80;1.88;;;;;;;;;;6207872;23;20024;-86
2023/06/30 02:58:36;;;;;;;5.25;1.73;;;;;;;;;;6207400;23;20054;-86
2023/06/30 03:01:05;;;;;;;3.53;1.80;;;;;;;;;;6208371;23;20024;-87
2023/06/30 03:03:31;;;;;;;4.35;1.80;;;;;;;;;;6206776;23;20012;-87
2023/06/30 03:05:58;;;;;;;3.72;2.00;;;;;;;;;;6182353;23;20040;-87
2023/06/30 03:08:24;;;;;;;2.50;1.98;;;;;;;;;;6206719;23;20364;-87
2023/06/30 03:10:50;;;;;;;3.08;1.80;;;;;;;;;;6209062;23;20501;-86
2023/06/30 03:13:16;;;;;;;3.75;2.05;;;;;;;;;;6206394;23;20017;-86
2023/06/30 03:15:42;;;;;;;5.78;1.85;;;;;;;;;;6206913;23;20092;-86
2023/06/30 03:18:08;;;;;;;2.97;1.65;;;;;;;;;;6206654;23;20469;-87
2023/06/30 03:20:34;;;;;;;2.63;1.58;;;;;;;;;;6206602;23;20402;-86
2023/06/30 03:23:00;;;;;;;3.05;1.88;;;;;;;;;;6209193;23;20013;-87
2023/06/30 03:25:26;;;;;;;3.50;1.80;;;;;;;;;;6206451;23;20017;-86
2023/06/30 03:27:52;;;;;;;2.78;1.58;;;;;;;;;;6209214;23;20012;-86
2023/06/30 03:30:18;;;;;;;3.47;2.20;;;;;;;;;;6207165;23;20110;-86
2023/06/30 03:32:44;;;;;;;2.85;1.30;;;;;;;;;;6208720;23;20087;-86
2023/06/30 03:35:10;;;;;;;3.83;1.70;;;;;;;;;;6207900;23;20323;-86
2023/06/30 03:37:36;;;;;;;2.70;1.77;;;;;;;;;;6208708;23;20468;-86
2023/06/30 03:40:05;;;;;;;3.50;1.52;;;;;;;;;;6208150;23;20025;-86
2023/06/30 03:42:31;;;;;;;3.85;1.98;;;;;;;;;;6207281;23;20454;-86
2023/06/30 03:44:57;;;;;;;3.83;1.63;;;;;;;;;;6206636;23;20346;-87
2023/06/30 03:47:23;;;;;;;3.22;1.73;;;;;;;;;;6206412;23;20028;-86
2023/06/30 03:49:49;;;;;;;2.90;1.85;;;;;;;;;;6206415;23;20027;-86
2023/06/30 03:52:15;;;;;;;4.13;1.77;;;;;;;;;;6209386;23;20040;-86
2023/06/30 03:54:42;;;;;;;4.32;2.22;;;;;;;;;;6207292;23;20042;-86
2023/06/30 03:57:08;;;;;;;4.63;1.60;;;;;;;;;;6208451;23;20023;-86
2023/06/30 03:59:34;;;;;;;7.28;1.95;;;;;;;;;;6208457;23;20066;-86
2023/06/30 04:02:00;;;;;;;5.03;1.60;;;;;;;;;;6207111;23;20371;-86
2023/06/30 04:04:26;;;;;;;3.08;2.00;;;;;;;;;;6205759;23;20024;-86
2023/06/30 04:06:52;;;;;;;2.22;1.55;;;;;;;;;;6207038;23;20040;-86
2023/06/30 04:09:18;;;;;;;3.60;2.03;;;;;;;;;;6207548;23;20020;-86
2023/06/30 04:11:44;;;;;;;2.20;1.33;;;;;;;;;;6208396;23;20014;-87
2023/06/30 04:14:10;;;;;;;3.13;1.80;;;;;;;;;;6206949;23;20020;-86
2023/06/30 04:16:36;;;;;;;2.88;1.50;;;;;;;;;;6209806;23;20013;-86
2023/06/30 04:19:02;;;;;;;4.70;2.10;;;;;;;;;;6205867;23;20078;-86
2023/06/30 04:21:28;;;;;;;3.17;1.63;;;;;;;;;;6207795;23;20016;-86
2023/06/30 04:23:54;;;;;;;5.28;1.85;;;;;;;;;;6209018;23;20013;-87
2023/06/30 04:26:20;;;;;;;4.82;2.20;;;;;;;;;;6205942;23;20094;-88
2023/06/30 04:28:46;;;;;;;3.70;1.80;;;;;;;;;;6205498;23;20386;-87
2023/06/30 04:31:12;;;;;;;3.88;1.88;;;;;;;;;;6206998;23;20188;-87
2023/06/30 04:33:38;;;;;;;2.92;1.65;;;;;;;;;;6206706;23;20484;-88
2023/06/30 04:36:06;;;;;;;4.45;1.73;;;;;;;;;;6206870;23;20033;-87
2023/06/30 04:38:32;;;;;;;2.53;1.85;;;;;;;;;;6209641;23;20343;-87
2023/06/30 04:40:58;;;;;;;7.30;2.08;;;;;;;;;;6207052;23;20240;-87
2023/06/30 04:43:24;;;;;;;2.90;2.00;;;;;;;;;;6206877;23;20442;-87
2023/06/30 04:45:51;;;;;;;3.20;1.38;;;;;;;;;;6207246;23;20024;-87
2023/06/30 04:48:17;;;;;;;4.50;1.65;;;;;;;;;;6206901;23;20012;-87
2023/06/30 04:50:43;;;;;;;2.70;1.58;;;;;;;;;;6205833;23;20047;-87
2023/06/30 04:53:09;;;;;;;1.83;1.45;;;;;;;;;;6205610;23;20032;-87
2023/06/30 04:55:35;;;;;;;5.95;1.92;;;;;;;;;;6206953;23;20017;-86
2023/06/30 04:58:01;;;;;;;2.97;1.58;;;;;;;;;;6205771;23;20016;-88
2023/06/30 05:00:27;;;;;;;5.72;2.22;;;;;;;;;;6206072;23;20023;-88
2023/06/30 05:02:54;;;;;;;6.20;1.80;;;;;;;;;;6205480;23;20016;-86
2023/06/30 05:05:20;;;;;;;3.10;1.95;;;;;;;;;;6204027;23;20019;-88
2023/06/30 05:07:46;;;;;;;2.55;1.50;;;;;;;;;;6208269;23;20040;-84
2023/06/30 05:10:12;;;;;;;4.57;2.10;;;;;;;;;;6205397;23;20099;-83
2023/06/30 05:12:38;;;;;;;3.72;1.80;;;;;;;;;;6207457;23;20079;-82
2023/06/30 05:15:05;;;;;;;2.30;1.90;;;;;;;;;;6205383;23;20023;-83
2023/06/30 05:17:31;;;;;;;3.35;1.40;;;;;;;;;;6205702;23;20028;-81
2023/06/30 05:19:57;;;;;;;4.55;1.83;;;;;;;;;;6206488;23;20017;-82
2023/06/30 05:22:23;;;;;;;2.30;1.90;;;;;;;;;;6208419;23;20048;-82
2023/06/30 05:24:49;;;;;;;2.60;1.70;;;;;;;;;;6205809;23;20027;-83
2023/06/30 05:27:15;;;;;;;2.80;1.70;;;;;;;;;;6208711;23;20052;-84
2023/06/30 05:29:41;;;;;;;5.35;1.85;;;;;;;;;;6205192;23;20056;-83
2023/06/30 05:32:08;;;;;;;2.75;1.65;;;;;;;;;;6206706;23;20463;-83
2023/06/30 05:34:34;;;;;;;3.53;1.63;;;;;;;;;;6206437;23;20019;-82
2023/06/30 05:37:00;;;;;;;2.75;1.95;;;;;;;;;;6206128;23;20012;-82
2023/06/30 05:39:26;;;;;;;5.40;1.67;;;;;;;;;;6206722;23;20021;-83
2023/06/30 05:41:52;;;;;;;6.15;1.98;;;;;;;;;;6207813;23;20017;-82
2023/06/30 05:44:18;;;;;;;3.65;1.25;;;;;;;;;;6207959;23;20047;-82
2023/06/30 05:46:44;;;;;;;7.50;1.85;;;;;;;;;;6208588;23;20012;-82
2023/06/30 05:49:10;;;;;;;3.55;1.65;;;;;;;;;;6210432;23;20070;-83
2023/06/30 05:51:37;;;;;;;3.67;1.52;;;;;;;;;;6209214;23;20439;-83
2023/06/30 05:54:03;;;;;;;3.03;1.30;;;;;;;;;;6209008;23;20020;-82
2023/06/30 05:56:29;;;;;;;2.90;1.30;;;;;;;;;;6208265;23;20464;-82
2023/06/30 05:58:55;;;;;;;4.15;1.35;;;;;;;;;;6207744;23;20350;-81
2023/06/30 06:01:21;;;;;;;4.63;1.58;;;;;;;;;;6207521;23;20025;-83
2023/06/30 06:03:48;;;;;;;17.33;4.20;;;;;;;;;;6207709;23;20023;-82
2023/06/30 06:06:14;;;;;;;2.53;1.30;;;;;;;;;;6209770;23;20370;-84
2023/06/30 06:08:44;;;;;;;5.30;1.60;;;;;;;;;;6209970;23;20023;-84
2023/06/30 06:11:10;;;;;;;5.05;1.67;;;;;;;;;;6209119;23;20047;-83
2023/06/30 06:13:37;;;;;;;3.45;1.42;;;;;;;;;;6210134;23;20067;-83
2023/06/30 06:16:04;;;;;;;8.15;1.83;;;;;;;;;;6207526;23;20092;-86
2023/06/30 06:18:30;;;;;;;5.03;2.00;;;;;;;;;;6205749;23;20017;-82
2023/06/30 06:20:56;;;;;;;4.50;1.70;;;;;;;;;;6208379;23;20520;-88
2023/06/30 06:23:23;;;;;;;3.95;1.20;;;;;;;;;;6208912;23;20418;-85
2023/06/30 06:25:49;;;;;;;2.42;1.25;;;;;;;;;;6206177;23;20012;-84
2023/06/30 06:28:15;;;;;;;3.72;1.45;;;;;;;;;;6206892;23;20040;-86
2023/06/30 06:30:41;;;;;;;4.28;1.58;;;;;;;;;;6208655;23;20016;-86
2023/06/30 06:33:08;;;;;;;3.47;1.52;;;;;;;;;;6207631;23;20466;-84
2023/06/30 06:35:34;;;;;;;4.28;0.93;;;;;;;;;;6205435;23;20350;-86
2023/06/30 06:38:00;;;;;;;4.88;1.40;;;;;;;;;;6206521;23;20350;-87
2023/06/30 06:40:28;;;;;;;4.93;1.30;;;;;;;;;;6205153;23;20021;-84
2023/06/30 06:42:55;;;;;;;4.97;1.30;;;;;;;;;;6208488;23;20017;-87
2023/06/30 06:45:21;;;;;;;3.47;1.00;;;;;;;;;;6207267;23;20465;-82
2023/06/30 06:48:06;;;;;;;3.55;0.90;;;;;;;;;;6208222;23;20079;-83
2023/06/30 06:50:32;;;;;;;2.65;1.10;;;;;;;;;;6205396;23;20020;-82
2023/06/30 06:52:58;;;;;;;3.95;1.23;;;;;;;;;;6207688;23;20021;-82
2023/06/30 06:55:24;;;;;;;2.40;1.00;;;;;;;;;;6207018;23;20070;-81
2023/06/30 06:57:50;;;;;;;2.30;0.70;;;;;;;;;;6205663;23;20017;-82
2023/06/30 07:00:17;;;;;;;2.22;0.70;;;;;;;;;;6204277;23;20027;-84
2023/06/30 07:02:43;;;;;;;3.83;0.95;;;;;;;;;;6206006;23;20012;-81
2023/06/30 07:05:10;;;;;;;3.88;1.00;;;;;;;;;;6204592;23;20032;-84
2023/06/30 07:07:36;;;;;;;3.20;0.75;;;;;;;;;;6209548;23;20013;-82
2023/06/30 07:10:02;;;;;;;2.97;1.10;;;;;;;;;;6205781;23;20452;-85
2023/06/30 07:12:28;;;;;;;1.42;0.60;;;;;;;;;;6207444;23;20346;-94
2023/06/30 07:14:54;;;;;;;3.22;1.00;;;;;;;;;;6181647;23;20038;-90
2023/06/30 07:17:20;;;;;;;3.92;1.05;;;;;;;;;;6209075;23;20442;-85
2023/06/30 07:19:46;;;;;;;1.55;0.88;;;;;;;;;;6207640;23;20410;-86
2023/06/30 07:22:12;;;;;;;3.03;0.82;;;;;;;;;;6208979;23;20016;-85
2023/06/30 07:24:38;;;;;;;2.22;0.90;;;;;;;;;;6206969;23;20016;-83
2023/06/30 07:27:05;;;;;;;2.05;0.80;;;;;;;;;;6206244;23;20030;-84
2023/06/30 07:29:31;;;;;;;1.73;0.98;;;;;;;;;;6209759;23;20091;-86
2023/06/30 07:31:57;;;;;;;6.53;1.35;;;;;;;;;;6206979;23;20020;-82
2023/06/30 07:34:23;;;;;;;1.98;0.98;;;;;;;;;;6205620;23;20386;-92
2023/06/30 07:36:52;;;;;;;2.45;0.88;;;;;;;;;;6180609;23;20024;-91
2023/06/30 07:39:18;;;;;;;3.20;1.20;;;;;;;;;;6180659;23;20370;-91
2023/06/30 07:41:44;;;;;;;2.30;0.85;;;;;;;;;;6208486;23;20017;-93
2023/06/30 07:44:11;;;;;;;2.53;1.20;;;;;;;;;;6206867;23;20051;-87
2023/06/30 07:46:38;;;;;;;3.33;1.10;;;;;;;;;;6206581;23;20343;-90
2023/06/30 07:49:04;;;;;;;3.85;1.17;;;;;;;;;;6206159;23;20044;-87
2023/06/30 07:51:30;;;;;;;1.60;0.80;;;;;;;;;;6208510;23;20016;-91
2023/06/30 07:53:57;;;;;;;2.30;1.20;;;;;;;;;;6207507;23;20016;-85
2023/06/30 07:56:23;;;;;;;2.75;1.13;;;;;;;;;;6206351;23;20051;-82
2023/06/30 07:58:49;;;;;;;2.05;1.10;;;;;;;;;;6208713;23;20013;-91
2023/06/30 08:01:15;;;;;;;3.25;0.85;;;;;;;;;;6208542;23;20403;-88
2023/06/30 08:03:41;;;;;;;2.53;1.10;;;;;;;;;;6205802;23;20013;-88
2023/06/30 08:06:07;;;;;;;1.52;1.00;;;;;;;;;;6206147;23;20020;-87
2023/06/30 08:08:33;;;;;;;2.67;0.82;;;;;;;;;;6207373;23;20043;-88
2023/06/30 08:10:59;;;;;;;1.45;0.77;;;;;;;;;;6205231;23;20020;-88
2023/06/30 08:13:26;;;;;;;2.20;0.80;;;;;;;;;;6208466;23;20020;-86
2023/06/30 08:15:52;;;;;;;3.03;0.80;;;;;;;;;;6181259;23;20017;-89
2023/06/30 08:18:18;;;;;;;1.65;0.80;;;;;;;;;;6206659;23;20012;-91
2023/06/30 08:20:44;;;;;;;3.40;0.90;;;;;;;;;;6207464;23;20311;-87
2023/06/30 08:23:12;;;;;;;1.98;0.80;;;;;;;;;;6206535;23;20017;-90
2023/06/30 08:25:38;;;;;;;1.35;0.60;;;;;;;;;;6207078;23;20087;-89
2023/06/30 08:28:05;;;;;;;1.48;0.85;;;;;;;;;;6205617;23;20075;-94
2023/06/30 08:30:31;;;;;;;1.98;0.77;;;;;;;;;;6181867;23;20095;-89
2023/06/30 08:32:57;;;;;;;1.95;1.10;;;;;;;;;;6181193;23;20399;-87
2023/06/30 08:35:23;;;;;;;3.35;0.80;;;;;;;;;;6207246;23;20401;-85
2023/06/30 08:37:49;;;;;;;2.20;0.77;;;;;;;;;;6204800;23;20016;-85
2023/06/30 08:40:20;;;;;;;2.90;0.65;;;;;;;;;;6204956;23;20016;-85
2023/06/30 08:42:46;;;;;;;3.20;0.85;;;;;;;;;;6204735;23;20020;-83
2023/06/30 08:45:13;;;;;;;1.77;1.25;;;;;;;;;;6204884;23;20009;-85
2023/06/30 08:47:40;;;;;;;1.73;0.68;;;;;;;;;;6206575;23;20020;-87
2023/06/30 08:50:07;;;;;;;1.13;0.70;;;;;;;;;;6204253;23;20059;-82
2023/06/30 08:52:34;;;;;;;2.58;0.90;;;;;;;;;;6206368;23;20020;-84
2023/06/30 08:55:01;;;;;;;1.98;0.95;;;;;;;;;;6206129;23;20433;-88
2023/06/30 08:57:27;;;;;;;5.97;3.10;;;;;;;;;;6205591;23;20055;-90
2023/06/30 08:59:53;;;;;;;2.10;0.77;;;;;;;;;;6206302;23;20016;-87
2023/06/30 09:02:19;;;;;;;2.97;0.80;;;;;;;;;;6206737;23;20062;-90
2023/06/30 09:04:46;;;;;;;1.38;0.73;;;;;;;;;;6205531;23;20076;-88
2023/06/30 09:07:15;;;;;;;1.95;0.82;;;;;;;;;;6205572;23;20338;-87
2023/06/30 09:09:43;;;;;;;0.90;0.63;;;;;;;;;;6206315;23;20051;-88
2023/06/30 09:12:09;;;;;;;3.33;0.90;;;;;;;;;;6206524;23;20024;-89
2023/06/30 09:14:36;;;;;;;2.25;0.70;;;;;;;;;;6208781;23;20055;-87
2023/06/30 09:17:02;;;;;;;1.10;0.63;;;;;;;;;;6206918;23;20016;-88
2023/06/30 09:19:29;;;;;;;2.30;0.88;;;;;;;;;;6210068;23;20013;-86
2023/06/30 09:21:56;;;;;;;0.95;0.70;;;;;;;;;;6206960;23;20047;-87
2023/06/30 09:24:23;;;;;;;2.13;0.57;;;;;;;;;;6208608;23;20445;-91
2023/06/30 09:26:52;;;;;;;1.17;0.50;;;;;;;;;;6208763;23;20331;-87
2023/06/30 09:29:21;;;;;;;0.70;0.70;;;;;;;;;;6209573;23;20079;-88
2023/06/30 09:31:50;;;;;;;1.00;0.60;;;;;;;;;;6208698;23;20028;-84
2023/06/30 09:34:19;;;;;;;1.08;0.70;;;;;;;;;;6209496;23;20091;-92
2023/06/30 09:36:48;;;;;;;1.35;0.55;;;;;;;;;;6208218;23;20020;-84
2023/06/30 09:39:14;;;;;;;0.88;0.45;;;;;;;;;;6209328;23;20020;-88
2023/06/30 09:41:44;;;;;;;0.63;0.60;;;;;;;;;;6209556;23;20393;-89
2023/06/30 09:44:11;;;;;;;1.85;0.70;;;;;;;;;;6204604;23;20063;-85
2023/06/30 09:46:44;;;;;;;1.05;0.52;;;;;;;;;;6207323;23;20012;-83
2023/06/30 09:49:22;;;;;;;1.80;0.80;;;;;;;;;;6208991;23;20091;-82
2023/06/30 09:51:48;;;;;;;1.52;0.65;;;;;;;;;;6207599;23;20047;-85
2023/06/30 09:54:17;;;;;;;1.35;0.57;;;;;;;;;;6207361;23;20502;-86
2023/06/30 09:56:45;;;;;;;1.15;0.52;;;;;;;;;;6209666;23;20016;-86
2023/06/30 09:59:12;;;;;;;1.65;0.50;;;;;;;;;;6208784;23;20028;-83
2023/06/30 10:01:38;;;;;;;1.15;0.75;;;;;;;;;;6207845;23;20092;-85
2023/06/30 10:04:04;;;;;;;1.50;0.70;;;;;;;;;;6206696;23;20020;-85
2023/06/30 10:06:30;;;;;;;1.50;0.55;;;;;;;;;;6207990;23;20051;-87
2023/06/30 10:08:57;;;;;;;2.05;0.85;;;;;;;;;;6206941;23;20024;-85
2023/06/30 10:11:26;;;;;;;2.13;0.70;;;;;;;;;;6209840;23;20025;-85
2023/06/30 10:13:53;;;;;;;1.30;0.70;;;;;;;;;;6207583;23;20095;-86
2023/06/30 10:16:21;;;;;;;1.25;0.50;;;;;;;;;;6209069;23;20051;-85
2023/06/30 10:18:49;;;;;;;2.15;0.65;;;;;;;;;;6208412;23;20012;-84
2023/06/30 10:21:15;;;;;;;1.58;0.68;;;;;;;;;;6206645;23;20012;-83
2023/06/30 10:23:43;;;;;;;1.15;0.77;;;;;;;;;;6204958;23;20144;-81
2023/06/30 10:26:10;;;;;;;1.83;0.73;;;;;;;;;;6206853;23;20009;-83
2023/06/30 10:28:36;;;;;;;1.27;0.80;;;;;;;;;;6208289;23;20017;-81
2023/06/30 10:31:02;;;;;;;4.00;0.80;;;;;;;;;;6209029;23;20035;-83
2023/06/30 10:33:28;;;;;;;1.00;0.90;;;;;;;;;;6207691;23;20017;-85
2023/06/30 10:35:55;;;;;;;2.55;0.90;;;;;;;;;;6205246;23;20016;-82
2023/06/30 10:38:22;;;;;;;1.20;0.80;;;;;;;;;;6206508;23;20024;-83
2023/06/30 10:40:48;;;;;;;2.80;0.80;;;;;;;;;;6208877;23;20017;-84
2023/06/30 10:43:14;;;;;;;0.85;0.70;;;;;;;;;;6181820;23;20021;-85
2023/06/30 10:45:59;;;;;;;0.98;0.68;;;;;;;;;;6206943;23;20024;-83
2023/06/30 10:48:27;;;;;;;1.75;0.73;;;;;;;;;;6206971;23;20017;-82
2023/06/30 10:50:54;;;;;;;1.00;0.75;;;;;;;;;;6206232;23;20016;-83
2023/06/30 10:53:20;;;;;;;2.47;0.98;;;;;;;;;;6206729;23;20044;-82
2023/06/30 10:55:47;;;;;;;3.50;0.90;;;;;;;;;;6205649;23;20012;-83
2023/06/30 10:58:23;;;;;;;2.63;0.82;;;;;;;;;;6208015;23;20042;-85
2023/06/30 11:01:05;;;;;;;1.02;0.60;;;;;;;;;;6207531;23;20016;-83
2023/06/30 11:03:50;;;;;;;1.80;0.98;;;;;;;;;;6204662;23;20082;-82
2023/06/30 11:06:19;;;;;;;1.13;0.60;;;;;;;;;;6204588;23;20018;-82
2023/06/30 11:08:59;;;;;;;0.60;0.47;;;;;;;;;;6208021;23;20074;-87
2023/06/30 11:11:27;;;;;;;1.02;0.60;;;;;;;;;;6208398;23;20013;-81
2023/06/30 11:14:13;;;;;;;1.17;1.00;;;;;;;;;;6208370;23;20024;-88
2023/06/30 11:16:58;;;;;;;2.15;0.98;;;;;;;;;;6208806;23;20334;-84
2023/06/30 11:19:24;;;;;;;2.65;1.10;;;;;;;;;;6205309;23;20024;-84
2023/06/30 11:22:09;;;;;;;3.42;0.85;;;;;;;;;;6208826;23;20395;-87
2023/06/30 11:24:35;;;;;;;2.45;0.63;;;;;;;;;;6207001;23;20095;-82
2023/06/30 11:27:04;;;;;;;2.22;0.95;;;;;;;;;;6206312;23;20027;-83
2023/06/30 11:29:30;;;;;;;4.05;0.90;;;;;;;;;;6206323;23;20016;-85
2023/06/30 11:31:56;;;;;;;5.32;0.90;;;;;;;;;;6203923;23;20016;-85
2023/06/30 11:34:22;;;;;;;2.35;0.70;;;;;;;;;;6206938;23;20027;-84
2023/06/30 11:36:48;;;;;;;3.05;1.00;;;;;;;;;;6205635;23;20016;-83
2023/06/30 11:39:15;;;;;;;4.13;1.08;;;;;;;;;;6204757;23;20107;-83
2023/06/30 11:41:41;;;;;;;3.25;0.80;;;;;;;;;;6206270;23;20051;-82
2023/06/30 11:44:07;;;;;;;2.13;0.85;;;;;;;;;;6205382;23;20040;-82
2023/06/30 11:46:36;;;;;;;1.45;0.60;;;;;;;;;;6206407;23;20505;-83
2023/06/30 11:49:02;;;;;;;1.70;1.02;;;;;;;;;;6207939;23;20413;-84
2023/06/30 11:51:30;;;;;;;2.42;0.77;;;;;;;;;;6206423;23;20385;-84
2023/06/30 11:53:56;;;;;;;2.90;0.95;;;;;;;;;;6205381;23;20012;-82
2023/06/30 11:56:22;;;;;;;2.17;1.02;;;;;;;;;;6206364;23;20019;-85
2023/06/30 11:58:51;;;;;;;1.08;0.65;;;;;;;;;;6205535;23;20112;-84
2023/06/30 12:01:19;;;;;;;2.78;1.00;;;;;;;;;;6205392;23;20020;-86
2023/06/30 12:03:46;;;;;;;1.05;0.68;;;;;;;;;;6206940;23;20170;-83
2023/06/30 12:06:18;;;;;;;3.20;0.98;;;;;;;;;;6205324;23;20063;-83
2023/06/30 12:08:45;;;;;;;1.67;1.10;;;;;;;;;;6206824;23;20052;-87
2023/06/30 12:11:11;;;;;;;1.55;1.30;;;;;;;;;;6206837;23;20446;-82
2023/06/30 12:13:42;;;;;;;1.05;0.90;;;;;;;;;;6206219;23;20115;-83
2023/06/30 12:16:08;;;;;;;1.15;0.95;;;;;;;;;;6207319;23;20016;-83
2023/06/30 12:18:36;;;;;;;2.13;1.05;;;;;;;;;;6208784;23;20019;-86
2023/06/30 12:21:02;;;;;;;3.08;1.15;;;;;;;;;;6206685;23;20020;-82
2023/06/30 12:23:29;;;;;;;1.58;0.70;;;;;;;;;;6205741;23;20008;-82
2023/06/30 12:25:56;;;;;;;1.52;0.77;;;;;;;;;;6205883;23;20074;-82
2023/06/30 12:28:23;;;;;;;1.15;0.85;;;;;;;;;;6205238;23;20568;-84
2023/06/30 12:30:49;;;;;;;1.92;0.93;;;;;;;;;;6204986;23;20337;-81
2023/06/30 12:33:19;;;;;;;2.80;1.10;;;;;;;;;;6203174;23;20071;-82
2023/06/30 12:35:46;;;;;;;1.95;1.10;;;;;;;;;;6202937;23;20331;-81
2023/06/30 12:38:13;;;;;;;2.08;0.90;;;;;;;;;;6203053;23;20051;-83
2023/06/30 12:40:39;;;;;;;1.58;0.80;;;;;;;;;;6203641;23;20020;-89
2023/06/30 12:43:05;;;;;;;2.78;0.82;;;;;;;;;;6203440;23;20041;-84
2023/06/30 12:45:31;;;;;;;3.00;1.20;;;;;;;;;;6202834;23;20024;-80
2023/06/30 12:47:57;;;;;;;1.70;1.00;;;;;;;;;;6204810;23;20439;-80
2023/06/30 12:50:23;;;;;;;1.10;0.80;;;;;;;;;;6203879;23;20017;-79
2023/06/30 12:52:50;;;;;;;3.08;1.20;;;;;;;;;;6205131;23;20024;-80
2023/06/30 12:55:16;;;;;;;1.40;1.02;;;;;;;;;;6206684;23;20020;-79
2023/06/30 12:57:42;;;;;;;2.28;0.90;;;;;;;;;;6204711;23;20023;-79
2023/06/30 13:00:12;;;;;;;1.00;0.90;;;;;;;;;;6205278;23;20023;-80
2023/06/30 13:02:38;;;;;;;2.70;0.82;;;;;;;;;;6206352;23;20046;-79
2023/06/30 13:05:04;;;;;;;1.50;0.80;;;;;;;;;;6206749;23;20020;-80
2023/06/30 13:07:33;;;;;;;2.10;1.23;;;;;;;;;;6206614;23;20103;-79
2023/06/30 13:10:00;;;;;;;2.08;0.88;;;;;;;;;;6204491;23;20466;-80
2023/06/30 13:12:26;;;;;;;1.38;0.73;;;;;;;;;;6206676;23;20036;-79
2023/06/30 13:14:56;;;;;;;2.25;1.10;;;;;;;;;;6204778;23;20027;-82
2023/06/30 13:17:22;;;;;;;2.33;1.08;;;;;;;;;;6206636;23;20020;-83
2023/06/30 13:19:48;;;;;;;2.17;0.82;;;;;;;;;;6205105;23;20016;-85
2023/06/30 13:22:15;;;;;;;1.38;0.90;;;;;;;;;;6204666;23;20055;-84
2023/06/30 13:24:43;;;;;;;1.73;1.00;;;;;;;;;;6206022;23;20027;-85
2023/06/30 13:27:09;;;;;;;2.65;1.00;;;;;;;;;;6207458;23;20065;-86
2023/06/30 13:29:36;;;;;;;2.53;1.50;;;;;;;;;;6205308;23;20229;-84
2023/06/30 13:32:02;;;;;;;2.22;1.00;;;;;;;;;;6206131;23;20084;-84
2023/06/30 13:34:28;;;;;;;1.92;0.88;;;;;;;;;;6204816;23;20012;-85
2023/06/30 13:36:54;;;;;;;2.58;1.00;;;;;;;;;;6205766;22;20021;-84
2023/06/30 13:39:20;;;;;;;2.70;1.08;;;;;;;;;;6203563;23;20017;-86
2023/06/30 13:41:46;;;;;;;1.38;1.00;;;;;;;;;;6204223;23;20473;-85
2023/06/30 13:44:12;;;;;;;2.97;1.15;;;;;;;;;;6203953;23;20083;-91
2023/06/30 13:46:38;;;;;;;2.40;1.35;;;;;;;;;;6180862;23;20050;-91
2023/06/30 13:49:04;;;;;;;2.15;1.08;;;;;;;;;;6180075;23;20019;-86
2023/06/30 13:51:30;;;;;;;1.38;0.98;;;;;;;;;;6206420;23;20024;-87
2023/06/30 13:53:56;;;;;;;2.38;1.10;;;;;;;;;;6206956;23;20508;-87
2023/06/30 13:56:23;;;;;;;2.25;1.00;;;;;;;;;;6204774;23;20099;-86
2023/06/30 13:58:49;;;;;;;2.25;1.40;;;;;;;;;;6206337;23;20091;-90
2023/06/30 14:01:15;;;;;;;1.98;1.08;;;;;;;;;;6206949;23;20016;-91
2023/06/30 14:03:42;;;;;;;7.57;1.92;;;;;;;;;;6206490;23;20023;-90
2023/06/30 14:06:08;;;;;;;2.90;1.50;;;;;;;;;;6181853;23;20024;-87
2023/06/30 14:08:34;;;;;;;1.83;1.00;;;;;;;;;;6210655;23;20120;-87
2023/06/30 14:11:00;;;;;;;2.60;1.30;;;;;;;;;;6205511;23;20021;-87
2023/06/30 14:13:27;;;;;;;1.52;0.98;;;;;;;;;;6206922;23;20079;-86
2023/06/30 14:15:53;;;;;;;3.70;1.33;;;;;;;;;;6205904;23;20020;-85
2023/06/30 14:18:19;;;;;;;1.83;1.10;;;;;;;;;;6209557;23;20098;-87
2023/06/30 14:20:47;;;;;;;2.67;1.27;;;;;;;;;;6206028;23;20021;-89
2023/06/30 14:23:13;;;;;;;2.30;1.55;;;;;;;;;;6181908;23;20017;-86
2023/06/30 14:25:40;;;;;;;1.23;1.10;;;;;;;;;;6207149;23;20017;-92
2023/06/30 14:28:06;;;;;;;1.48;1.00;;;;;;;;;;6180875;23;20021;-85
2023/06/30 14:30:34;;;;;;;2.00;1.20;;;;;;;;;;6207340;23;20071;-86
2023/06/30 14:33:03;;;;;;;2.17;1.17;;;;;;;;;;6181045;23;20135;-83
2023/06/30 14:35:30;;;;;;;2.08;1.15;;;;;;;;;;6206119;23;20012;-86
2023/06/30 14:37:56;;;;;;;1.77;0.93;;;;;;;;;;6209164;23;20027;-80
2023/06/30 14:40:24;;;;;;;4.05;1.10;;;;;;;;;;6205974;23;20016;-82
2023/06/30 14:42:51;;;;;;;1.80;1.20;;;;;;;;;;6205939;23;20373;-82